Time;durP1;ratioP1;P1;durP2;ratioP2;P2;SDS_P1;SDS_P2;PMS_P1;PMS_P2;Temp;Humidity;BMP_temperature;BMP_pressure;BME280_temperature;BME280_humidity;BME280_pressure;Samples;Min_cycle;Max_cycle;Signal;HPM_P1;HPM_P2
2022/06/26 00:01:00;;;;;;;3.40;3.10;;;17.40;99.90;;;18.05;80.53;97648.59;5196682;28;20264;-61
2022/06/26 00:03:34;;;;;;;3.22;3.03;;;17.20;99.90;;;18.07;80.58;97644.34;5199382;28;20190;-61
2022/06/26 00:06:08;;;;;;;3.15;2.90;;;17.20;99.90;;;18.09;81.61;97655.63;5190634;28;20212;-61
2022/06/26 00:08:41;;;;;;;3.50;3.15;;;17.30;99.90;;;18.12;81.81;97653.09;5199264;28;20808;-62
2022/06/26 00:11:14;;;;;;;3.42;3.03;;;17.40;99.90;;;18.08;81.53;97653.84;5195535;28;20287;-61
2022/06/26 00:13:47;;;;;;;2.97;2.80;;;17.40;99.90;;;18.09;80.86;97665.97;5192713;28;20195;-61
2022/06/26 00:16:21;;;;;;;3.60;3.30;;;17.30;99.90;;;18.08;81.22;97659.03;5199778;28;20644;-62
2022/06/26 00:18:56;;;;;;;3.80;3.50;;;17.30;99.90;;;18.06;81.39;97650.38;5197019;28;20217;-61
2022/06/26 00:21:29;;;;;;;4.90;4.50;;;17.30;99.90;;;18.00;82.02;97656.25;5187700;28;20205;-61
2022/06/26 00:24:02;;;;;;;6.43;5.65;;;17.40;99.90;;;18.02;81.76;97652.84;5200710;28;20256;-62
2022/06/26 00:26:35;;;;;;;5.57;4.78;;;17.30;99.90;;;18.06;81.27;97656.41;5198381;28;20614;-61
2022/06/26 00:29:08;;;;;;;4.80;4.40;;;17.30;99.90;;;18.05;81.39;97652.06;5202257;28;20263;-60
2022/06/26 00:31:42;;;;;;;4.50;4.13;;;17.30;99.90;;;18.06;82.07;97650.38;5201568;28;20233;-62
2022/06/26 00:34:16;;;;;;;3.67;3.25;;;17.30;99.90;;;18.08;82.03;97653.84;5195348;28;20237;-62
2022/06/26 00:36:49;;;;;;;3.47;3.17;;;17.30;99.90;;;18.12;81.93;97656.56;5195281;28;20267;-61
2022/06/26 00:39:23;;;;;;;3.15;2.95;;;17.30;99.90;;;17.99;81.81;97652.78;5194056;28;20256;-62
2022/06/26 00:41:56;;;;;;;3.60;3.30;;;17.30;99.90;;;17.90;81.21;97652.56;5197517;28;20198;-62
2022/06/26 00:44:29;;;;;;;3.75;3.45;;;17.10;99.90;;;17.79;80.96;97651.41;5197128;28;20655;-62
2022/06/26 00:47:03;;;;;;;3.55;3.30;;;16.90;99.90;;;17.75;81.23;97645.25;5204761;28;20285;-62
2022/06/26 00:49:37;;;;;;;3.65;3.35;;;16.90;99.90;;;17.73;81.91;97657.28;5199078;28;20620;-62
2022/06/26 00:52:11;;;;;;;3.40;3.10;;;16.90;99.90;;;17.65;81.92;97652.75;5202368;28;20676;-61
2022/06/26 00:54:45;;;;;;;3.58;3.28;;;16.80;99.90;;;17.65;81.70;97663.06;5199920;28;20194;-61
2022/06/26 00:57:18;;;;;;;3.38;3.17;;;16.80;99.90;;;17.54;81.76;97661.09;5205058;28;20222;-62
2022/06/26 00:59:51;;;;;;;3.25;3.03;;;16.70;99.90;;;17.52;82.33;97665.34;5198244;28;20246;-62
2022/06/26 01:02:24;;;;;;;4.28;3.33;;;16.70;99.90;;;17.58;81.30;97664.63;5200812;28;20230;-62
2022/06/26 01:04:59;;;;;;;5.20;3.53;;;16.80;99.90;;;17.64;82.67;97667.38;5199904;28;20202;-62
2022/06/26 01:07:33;;;;;;;3.42;3.10;;;16.80;99.90;;;17.70;83.48;97669.25;5201413;28;20668;-62
2022/06/26 01:10:07;;;;;;;4.03;3.72;;;17.00;99.90;;;17.77;83.78;97676.34;5205532;28;20221;-62
2022/06/26 01:12:41;;;;;;;4.10;3.80;;;17.00;99.90;;;17.80;83.55;97673.88;5203209;28;20194;-62
2022/06/26 01:15:14;;;;;;;4.03;3.60;;;17.00;99.90;;;17.80;83.16;97673.88;5194267;28;20202;-61
2022/06/26 01:17:48;;;;;;;3.55;3.35;;;17.00;99.90;;;17.83;83.34;97679.13;5205933;28;20285;-61
2022/06/26 01:20:23;;;;;;;3.72;3.22;;;17.00;99.90;;;17.85;84.39;97672.25;5202341;28;20648;-62
2022/06/26 01:23:02;;;;;;;3.70;3.40;;;17.10;99.90;;;17.83;83.92;97668.78;5198348;28;20236;-62
2022/06/26 01:25:44;;;;;;;3.78;3.58;;;17.10;99.90;;;17.82;83.93;97672.19;5194067;28;20234;-62
2022/06/26 01:28:17;;;;;;;3.88;3.58;;;17.00;99.90;;;17.82;84.15;97672.19;5194234;28;20269;-59
2022/06/26 01:30:50;;;;;;;3.78;3.47;;;17.10;99.90;;;17.89;84.94;97719.78;5200325;28;20295;-60
2022/06/26 01:33:24;;;;;;;3.53;3.22;;;17.20;99.90;;;17.92;83.02;97769.84;5197485;28;20202;-62
2022/06/26 01:35:57;;;;;;;3.75;3.45;;;17.10;99.90;;;17.82;82.97;97725.59;5202712;28;20711;-61
2022/06/26 01:38:32;;;;;;;3.95;3.03;;;16.90;99.90;;;17.71;82.82;97735.63;5199215;28;20249;-61
2022/06/26 01:41:05;;;;;;;3.45;3.25;;;16.80;99.90;;;17.62;84.15;97732.78;5204979;28;20198;-61
2022/06/26 01:43:40;;;;;;;4.20;3.25;;;16.80;99.90;;;17.45;84.42;97727.16;5203011;28;20202;-62
2022/06/26 01:46:13;;;;;;;4.20;4.00;;;16.70;99.90;;;17.43;84.93;97727.13;5193787;28;20197;-62
2022/06/26 01:48:46;;;;;;;3.60;3.38;;;16.70;99.90;;;17.29;84.89;97725.88;5199309;28;20223;-61
2022/06/26 01:51:19;;;;;;;3.55;3.28;;;16.60;99.90;;;17.30;84.52;97727.59;5206407;28;20257;-62
2022/06/26 01:53:54;;;;;;;5.22;3.40;;;16.50;99.90;;;17.31;85.76;97725.09;5199411;28;20197;-62
2022/06/26 01:56:27;;;;;;;4.05;3.15;;;16.60;99.90;;;17.36;85.20;97712.28;5196196;28;20325;-61
2022/06/26 01:59:00;;;;;;;3.53;3.22;;;16.60;99.90;;;17.36;84.15;97712.28;5203401;28;20233;-62
2022/06/26 02:01:34;;;;;;;3.05;2.85;;;16.60;99.90;;;17.38;85.10;97709.75;5199459;28;20194;-62
2022/06/26 02:04:07;;;;;;;3.40;3.17;;;16.60;99.90;;;17.45;86.12;97703.91;5203345;28;20292;-60
2022/06/26 02:06:40;;;;;;;3.35;3.05;;;16.70;99.90;;;17.47;86.00;97708.28;5197527;28;20202;-60
2022/06/26 02:14:52;;;;;;;4.30;4.00;;;16.80;99.90;;;17.52;85.00;97706.69;5196550;28;20222;-61
2022/06/26 02:17:25;;;;;;;4.28;3.97;;;16.80;99.90;;;17.51;86.07;97710.13;5196047;28;20669;-62
2022/06/26 02:19:59;;;;;;;4.30;4.00;;;16.80;99.90;;;17.53;86.48;97705.84;5201507;28;20683;-62
2022/06/26 02:22:32;;;;;;;4.38;4.07;;;16.80;99.90;;;17.52;86.02;97705.84;5194364;28;20635;-62
2022/06/26 02:25:08;;;;;;;4.68;4.38;;;16.80;99.90;;;17.50;85.56;97700.59;5198721;28;20719;-62
2022/06/26 02:27:41;;;;;;;4.60;4.30;;;16.80;99.90;;;17.44;85.30;97702.16;5203755;28;20201;-62
2022/06/26 02:30:14;;;;;;;4.60;4.30;;;16.70;99.90;;;17.40;86.32;97708.97;5199080;28;20229;-62
2022/06/26 02:32:48;;;;;;;5.03;4.68;;;16.60;99.90;;;17.40;86.60;97698.63;5196156;28;20202;-61
2022/06/26 02:35:21;;;;;;;3.80;3.50;;;16.60;99.90;;;17.55;83.83;97699.03;5197668;28;20206;-61
2022/06/26 02:37:55;;;;;;;3.80;3.50;;;16.60;99.90;;;17.36;84.36;97690.72;5200664;28;20245;-62
2022/06/26 02:40:31;;;;;;;3.72;3.40;;;16.60;99.90;;;17.35;84.78;97689.88;5193655;28;20207;-61
2022/06/26 02:43:04;;;;;;;4.45;3.40;;;16.60;99.90;;;17.32;84.65;97689.78;5202461;28;20193;-61
2022/06/26 02:45:38;;;;;;;3.95;3.55;;;16.60;99.90;;;17.37;83.80;97703.72;5199282;28;20229;-61
2022/06/26 02:48:11;;;;;;;3.50;3.30;;;16.60;99.90;;;17.46;84.05;97729.78;5197811;28;20717;-62
2022/06/26 02:50:44;;;;;;;3.60;3.40;;;16.80;99.90;;;17.63;84.99;97738.03;5201853;28;20222;-61
2022/06/26 02:53:18;;;;;;;3.47;3.17;;;16.90;99.90;;;17.74;85.05;97743.44;5203482;28;20582;-62
2022/06/26 02:55:53;;;;;;;3.63;3.33;;;17.00;99.90;;;17.75;85.26;97742.63;5204294;28;20230;-61
2022/06/26 02:58:26;;;;;;;3.45;3.15;;;17.00;99.90;;;17.76;84.44;97745.25;5196737;28;20252;-60
2022/06/26 03:00:59;;;;;;;3.70;3.25;;;17.00;99.90;;;17.78;85.09;97747.94;5194814;28;20727;-60
2022/06/26 03:03:32;;;;;;;3.30;3.10;;;17.00;99.90;;;17.76;85.06;97752.13;5203396;28;20232;-62
2022/06/26 03:06:06;;;;;;;3.35;3.13;;;17.00;99.90;;;17.74;84.97;97741.78;5203302;28;20569;-61
2022/06/26 03:08:39;;;;;;;3.60;3.30;;;16.90;99.90;;;17.77;85.55;97747.03;5202851;28;20256;-62
2022/06/26 03:11:13;;;;;;;4.18;3.00;;;17.00;99.90;;;17.78;85.28;97745.34;5202501;28;20244;-61
2022/06/26 03:13:46;;;;;;;3.40;3.10;;;17.00;99.90;;;17.81;86.59;97736.78;5200125;28;20325;-62
2022/06/26 03:16:20;;;;;;;3.90;3.60;;;17.10;99.90;;;17.78;85.77;97735.00;5197965;28;20795;-62
2022/06/26 03:18:53;;;;;;;4.03;3.53;;;17.10;99.90;;;17.82;85.06;97731.66;5198730;28;20214;-60
2022/06/26 03:21:26;;;;;;;4.13;3.92;;;17.00;99.90;;;17.83;84.61;97728.25;5200701;28;20199;-60
2022/06/26 03:24:02;;;;;;;4.13;3.85;;;17.10;99.90;;;17.81;84.56;97722.16;5201536;28;20257;-62
2022/06/26 03:26:39;;;;;;;4.07;3.72;;;17.00;99.90;;;17.70;85.64;97728.72;5190242;28;20563;-62
2022/06/26 03:29:12;;;;;;;3.45;3.22;;;16.90;99.90;;;17.69;86.61;97742.47;5186917;28;20253;-62
2022/06/26 03:31:45;;;;;;;3.50;3.22;;;16.90;99.90;;;17.67;86.04;97724.31;5199956;28;20692;-61
2022/06/26 03:34:19;;;;;;;3.42;3.17;;;16.90;99.90;;;17.60;84.67;97726.69;5196008;28;20722;-61
2022/06/26 03:36:52;;;;;;;3.45;3.17;;;16.80;99.90;;;17.55;84.51;97724.88;5200213;28;20207;-61
2022/06/26 03:39:25;;;;;;;3.60;3.30;;;16.70;99.90;;;17.62;85.55;97730.22;5199123;28;20226;-61
2022/06/26 03:42:01;;;;;;;3.40;3.20;;;16.80;99.90;;;17.61;85.55;97726.75;5193037;28;20237;-62
2022/06/26 03:44:34;;;;;;;3.65;3.40;;;16.80;99.90;;;17.62;86.92;97735.38;5193796;28;20578;-60
2022/06/26 03:47:07;;;;;;;3.20;3.00;;;16.90;99.90;;;17.64;86.63;97749.22;5198875;28;20230;-61
2022/06/26 03:49:40;;;;;;;3.67;3.47;;;16.90;99.90;;;17.64;86.25;97750.09;5203509;28;20249;-59
2022/06/26 03:52:13;;;;;;;3.40;3.20;;;16.90;99.90;;;17.65;85.45;97732.88;5203927;28;20268;-62
2022/06/26 03:54:46;;;;;;;3.78;3.55;;;16.80;99.90;;;17.69;85.35;97737.31;5198476;28;20253;-60
2022/06/26 03:57:21;;;;;;;3.30;3.13;;;16.80;99.90;;;17.67;85.28;97733.81;5201437;28;20233;-61
2022/06/26 03:59:56;;;;;;;3.63;3.40;;;16.80;99.90;;;17.63;85.23;97737.16;5196376;28;20253;-62
2022/06/26 04:02:29;;;;;;;3.80;3.40;;;16.80;99.90;;;17.68;85.56;97732.94;5197374;28;20296;-62
2022/06/26 04:05:04;;;;;;;3.75;3.45;;;16.90;99.90;;;17.61;85.15;97723.28;5198737;28;20202;-62
2022/06/26 04:07:37;;;;;;;3.13;2.92;;;16.80;99.90;;;17.63;84.57;97722.50;5198648;28;20228;-61
2022/06/26 04:10:11;;;;;;;3.40;3.10;;;16.80;99.90;;;17.74;84.88;97720.19;5198264;28;20203;-60
2022/06/26 04:12:45;;;;;;;3.35;3.13;;;16.90;99.90;;;17.84;86.08;97727.41;5192665;28;20699;-61
2022/06/26 04:15:19;;;;;;;3.80;3.60;;;17.10;99.90;;;17.92;85.66;97731.06;5198472;28;20279;-62
2022/06/26 04:17:52;;;;;;;3.78;3.58;;;17.20;99.90;;;17.94;84.77;97734.56;5201732;28;20206;-62
2022/06/26 04:20:25;;;;;;;3.83;3.55;;;17.10;99.90;;;17.99;84.69;97734.66;5198529;28;20199;-60
2022/06/26 04:23:01;;;;;;;3.75;3.45;;;17.20;99.90;;;18.11;84.53;97736.69;5193372;28;20237;-60
2022/06/26 04:25:36;;;;;;;5.20;3.40;;;17.30;99.90;;;18.28;84.02;97740.56;5196098;28;20712;-62
2022/06/26 04:28:11;;;;;;;4.30;3.55;;;17.50;99.90;;;18.37;83.15;97746.00;5199040;28;20213;-61
2022/06/26 04:30:45;;;;;;;3.40;3.20;;;17.60;99.90;;;18.41;82.40;97753.00;5200721;28;20617;-62
2022/06/26 04:33:18;;;;;;;3.53;3.25;;;17.60;99.90;;;18.51;82.40;97750.63;5201561;28;20222;-62
2022/06/26 04:35:51;;;;;;;3.20;3.00;;;17.70;99.90;;;18.60;81.98;97748.25;5201201;28;20202;-62
2022/06/26 04:38:24;;;;;;;3.78;3.17;;;17.70;99.90;;;18.63;81.97;97751.81;5200810;28;20217;-61
2022/06/26 04:40:57;;;;;;;3.53;3.30;;;17.80;99.90;;;18.69;81.94;97753.66;5202141;28;20209;-62
2022/06/26 04:43:32;;;;;;;3.63;3.33;;;17.90;99.90;;;18.83;81.64;97762.66;5195299;28;20221;-61
2022/06/26 04:46:05;;;;;;;3.78;3.45;;;18.00;99.90;;;19.16;80.76;97756.47;5199990;28;20194;-62
2022/06/26 04:48:38;;;;;;;3.33;3.13;;;18.40;99.90;;;19.86;77.96;97763.94;5200856;28;20217;-62
2022/06/26 04:51:11;;;;;;;3.30;3.00;;;19.10;99.90;;;20.77;74.15;97763.78;5197319;28;20229;-62
2022/06/26 04:53:45;;;;;;;3.30;3.00;;;20.00;99.90;;;21.58;70.15;97760.63;5200064;28;20210;-62
2022/06/26 04:56:18;;;;;;;3.00;2.80;;;20.70;99.90;;;22.34;66.83;97757.06;5201906;28;20234;-62
2022/06/26 04:58:54;;;;;;;3.15;2.83;;;21.30;99.90;;;22.83;62.91;97759.19;5199527;28;20268;-61
2022/06/26 05:01:28;;;;;;;2.78;2.58;;;21.80;99.90;;;22.70;63.70;97753.03;5199152;28;20225;-62
2022/06/26 05:04:01;;;;;;;2.95;2.75;;;21.40;99.90;;;22.51;64.43;97738.97;5197566;28;20206;-62
2022/06/26 05:06:34;;;;;;;2.97;2.78;;;21.10;99.90;;;22.11;65.26;97736.00;5202270;28;20725;-62
2022/06/26 05:09:07;;;;;;;3.85;3.00;;;20.70;99.90;;;21.65;68.24;97739.88;5191678;28;20667;-62
2022/06/26 05:11:41;;;;;;;3.03;2.72;;;20.40;99.90;;;21.55;68.79;97749.31;5197356;28;20213;-64
2022/06/26 05:14:16;;;;;;;2.90;2.70;;;20.40;99.90;;;21.68;68.53;97745.97;5194364;28;20201;-62
2022/06/26 05:16:49;;;;;;;2.83;2.60;;;20.50;99.90;;;21.74;67.85;97739.97;5201506;28;20202;-62
2022/06/26 05:19:23;;;;;;;2.63;2.42;;;20.50;99.90;;;21.83;67.41;97740.06;5199308;28;20241;-61
2022/06/26 05:22:02;;;;;;;3.45;2.55;;;20.60;99.90;;;21.96;67.57;97741.06;5195526;28;20194;-62
2022/06/26 05:24:36;;;;;;;2.50;2.30;;;20.70;99.90;;;22.05;66.92;97742.03;5194902;28;20198;-62
2022/06/26 05:27:09;;;;;;;2.80;2.60;;;20.80;99.90;;;22.12;67.32;97735.16;5193552;28;20268;-59
2022/06/26 05:29:50;;;;;;;3.10;2.90;;;20.90;99.90;;;21.93;67.68;97739.31;5188630;28;20776;-60
2022/06/26 05:32:23;;;;;;;4.45;2.60;;;20.70;99.90;;;21.92;67.70;97729.75;5198201;28;20217;-60
2022/06/26 05:34:56;;;;;;;3.08;2.78;;;20.80;99.90;;;21.91;68.67;97734.94;5203346;28;20194;-60
2022/06/26 05:37:29;;;;;;;2.67;2.47;;;20.80;99.90;;;22.18;66.52;97737.00;5201590;28;20233;-60
2022/06/26 05:40:04;;;;;;;2.60;2.50;;;21.10;99.90;;;22.76;65.63;97737.44;5199755;28;20246;-61
2022/06/26 05:42:37;;;;;;;3.20;2.90;;;21.60;99.90;;;23.32;64.34;97744.75;5201354;28;20226;-60
2022/06/26 05:45:12;;;;;;;2.67;2.47;;;22.20;99.90;;;24.20;61.37;97752.84;5201116;28;20820;-61
2022/06/26 05:47:45;;;;;;;2.72;2.60;;;23.10;99.90;;;24.69;58.48;97753.75;5198800;28;20201;-61
2022/06/26 05:50:20;;;;;;;2.78;2.40;;;23.40;99.90;;;24.63;58.10;97743.31;5200977;28;20252;-61
2022/06/26 05:52:54;;;;;;;2.33;2.20;;;23.10;99.90;;;24.40;58.44;97756.34;5196154;28;20310;-61
2022/06/26 05:55:27;;;;;;;2.83;2.60;;;22.90;99.90;;;24.18;59.07;97752.88;5198161;28;20198;-60
2022/06/26 05:58:00;;;;;;;2.58;2.38;;;22.80;99.90;;;24.17;59.34;97752.84;5194102;28;20683;-59
2022/06/26 06:00:40;;;;;;;2.60;2.40;;;22.70;99.90;;;24.38;60.06;97759.84;5196064;28;20204;-59
2022/06/26 06:03:13;;;;;;;2.60;2.42;;;23.00;99.90;;;25.02;58.68;97758.97;5192119;28;20237;-60
2022/06/26 06:05:47;;;;;;;2.63;2.00;;;23.70;99.90;;;25.89;54.28;97758.69;5194325;28;20647;-60
2022/06/26 06:08:20;;;;;;;1.73;1.63;;;24.40;99.50;;;26.72;51.30;97764.25;5191458;28;20646;-60
2022/06/26 06:10:53;;;;;;;2.13;1.85;;;25.00;97.90;;;26.76;48.94;97766.88;5199671;28;20263;-59
2022/06/26 06:13:26;;;;;;;2.10;2.00;;;25.20;96.00;;;26.73;49.71;97770.38;5199036;28;20350;-60
2022/06/26 06:16:00;;;;;;;1.90;1.80;;;25.00;96.70;;;26.76;49.28;97770.34;5200848;28;20213;-60
2022/06/26 06:18:34;;;;;;;2.25;2.15;;;25.00;96.60;;;26.65;49.67;97772.19;5199456;28;20217;-60
2022/06/26 06:21:07;;;;;;;2.08;1.98;;;24.80;96.40;;;26.35;50.93;97774.13;5196584;28;20197;-60
2022/06/26 06:23:43;;;;;;;1.88;1.73;;;24.60;97.30;;;25.90;51.47;97775.28;5201989;28;20682;-60
2022/06/26 06:26:17;;;;;;;1.92;1.83;;;24.20;97.40;;;25.74;52.37;97784.94;5196724;28;20205;-60
2022/06/26 06:28:50;;;;;;;2.42;1.83;;;24.00;98.20;;;25.53;53.79;97785.91;5199381;28;20215;-60
2022/06/26 06:31:24;;;;;;;2.05;1.85;;;23.80;99.00;;;25.29;55.02;97785.09;5194658;28;20226;-60
2022/06/26 06:33:58;;;;;;;2.17;2.08;;;23.60;99.80;;;24.97;56.71;97790.34;5202409;28;20311;-60
2022/06/26 06:36:31;;;;;;;2.15;2.00;;;23.40;99.90;;;24.92;57.08;97787.75;5196314;28;20551;-60
2022/06/26 06:39:04;;;;;;;2.10;2.00;;;23.30;99.90;;;24.82;56.79;97780.78;5197885;28;20279;-58
2022/06/26 06:41:37;;;;;;;2.10;1.90;;;23.20;99.90;;;24.77;56.97;97787.75;5200079;28;20225;-60
2022/06/26 06:44:11;;;;;;;1.83;1.73;;;23.20;99.90;;;24.96;56.46;97788.63;5203205;28;21710;-59
2022/06/26 06:46:45;;;;;;;2.10;2.00;;;23.40;99.90;;;25.41;56.09;97792.06;5200276;28;20202;-60
2022/06/26 06:49:18;;;;;;;2.17;2.08;;;23.70;99.90;;;25.42;54.57;97782.44;5198599;28;20224;-59
2022/06/26 06:51:51;;;;;;;1.83;1.63;;;23.80;99.90;;;25.45;54.33;97792.91;5194713;28;20267;-59
2022/06/26 06:54:25;;;;;;;1.80;1.70;;;23.70;99.90;;;25.35;55.26;97784.19;5201689;28;20229;-58
2022/06/26 06:56:58;;;;;;;2.20;2.03;;;23.70;99.90;;;25.37;55.03;97778.09;5200901;28;20205;-59
2022/06/26 06:59:31;;;;;;;2.17;1.80;;;23.60;99.90;;;25.73;54.88;97772.72;5198682;28;20230;-58
2022/06/26 07:02:06;;;;;;;2.20;2.10;;;24.10;99.70;;;26.21;53.29;97765.47;5195608;28;20712;-60
2022/06/26 07:04:39;;;;;;;2.05;1.95;;;24.70;98.90;;;26.51;52.35;97761.81;5205025;28;20204;-59
2022/06/26 07:07:12;;;;;;;1.80;1.70;;;24.90;98.00;;;27.07;51.00;97760.44;5190433;28;20225;-60
2022/06/26 07:09:46;;;;;;;1.73;1.63;;;25.60;97.20;;;27.90;48.42;97766.50;5199609;28;20635;-60
2022/06/26 07:12:19;;;;;;;1.90;1.80;;;26.30;95.60;;;28.09;48.01;97773.25;5193951;28;20666;-60
2022/06/26 07:14:53;;;;;;;2.03;1.83;;;26.20;95.40;;;28.03;47.38;97758.44;5198807;28;20707;-60
2022/06/26 07:17:27;;;;;;;1.95;1.85;;;25.90;95.70;;;28.17;47.92;97762.63;5201249;28;20198;-60
2022/06/26 07:20:00;;;;;;;2.10;1.80;;;26.10;95.40;;;28.55;46.20;97769.94;5202136;28;20312;-60
2022/06/26 07:22:33;;;;;;;2.08;1.90;;;26.60;94.40;;;28.78;46.20;97772.19;5203870;28;20202;-60
2022/06/26 07:25:08;;;;;;;1.70;1.60;;;26.60;94.50;;;28.90;45.83;97771.09;5200994;28;20719;-60
2022/06/26 07:27:41;;;;;;;1.60;1.50;;;26.80;94.40;;;28.87;46.43;97768.53;5200099;28;20239;-60
2022/06/26 07:30:15;;;;;;;2.40;1.70;;;26.70;94.70;;;28.75;46.01;97772.25;5199316;28;20206;-60
2022/06/26 07:32:50;;;;;;;2.15;2.00;;;26.60;94.60;;;28.77;45.90;97775.72;5198111;28;20193;-60
2022/06/26 07:35:23;;;;;;;1.65;1.55;;;26.70;94.40;;;28.72;46.40;97775.78;5196941;28;20654;-60
2022/06/26 07:37:56;;;;;;;3.50;1.60;;;26.60;94.60;;;28.70;45.86;97769.72;5195724;28;20244;-60
2022/06/26 07:40:29;;;;;;;1.83;1.73;;;26.50;94.20;;;28.53;46.84;97766.50;5191742;28;20263;-60
2022/06/26 07:43:03;;;;;;;1.80;1.70;;;26.60;94.60;;;29.03;45.98;97772.66;5197117;28;20229;-60
2022/06/26 07:45:36;;;;;;;1.80;1.70;;;27.10;93.90;;;29.75;44.37;97770.41;5199485;28;20201;-59
2022/06/26 07:48:10;;;;;;;2.03;1.75;;;27.80;92.90;;;30.53;42.43;97772.19;5191706;28;20280;-60
2022/06/26 07:50:44;;;;;;;2.10;1.67;;;28.40;91.90;;;30.77;40.67;97775.13;5192315;28;20624;-59
2022/06/26 07:53:18;;;;;;;1.73;1.63;;;28.50;90.80;;;31.44;40.02;97767.22;5192819;28;20226;-61
2022/06/26 07:55:52;;;;;;;1.63;1.45;;;28.90;90.60;;;31.74;39.69;97768.13;5193715;28;20663;-62
2022/06/26 08:06:58;;;;;;;2.08;1.63;;;28.20;91.30;;;29.51;43.39;97764.72;5196492;28;20200;-62
2022/06/26 08:09:31;;;;;;;1.55;1.45;;;27.40;92.20;;;29.98;42.47;97757.59;5192378;28;20229;-61
2022/06/26 08:12:05;;;;;;;1.70;1.60;;;27.80;91.90;;;31.04;40.65;97759.50;5199351;28;20233;-61
2022/06/26 08:14:38;;;;;;;1.90;1.45;;;28.40;91.40;;;31.61;40.27;97751.75;5195983;28;20228;-62
2022/06/26 08:17:11;;;;;;;1.50;1.40;;;28.80;90.90;;;31.92;39.08;97755.31;5194594;28;20202;-60
2022/06/26 08:19:44;;;;;;;1.42;1.40;;;29.10;90.50;;;31.92;38.89;97761.44;5196593;28;20303;-60
2022/06/26 08:22:19;;;;;;;2.17;1.52;;;29.30;89.40;;;32.15;39.26;97763.38;5193831;28;20201;-62
2022/06/26 08:24:52;;;;;;;1.77;1.67;;;29.50;90.40;;;32.22;38.39;97770.22;5198410;28;20323;-61
2022/06/26 08:27:25;;;;;;;1.65;1.50;;;29.60;89.50;;;32.22;38.61;97762.28;5194156;28;20197;-62
2022/06/26 08:29:58;;;;;;;1.60;1.50;;;29.80;89.00;;;32.41;39.21;97751.97;5199231;28;20226;-62
2022/06/26 08:32:31;;;;;;;1.60;1.50;;;30.00;89.10;;;32.35;38.48;97754.81;5195917;28;20233;-61
2022/06/26 08:35:06;;;;;;;1.75;1.65;;;30.30;86.70;;;31.55;39.88;97746.63;5196794;28;20218;-62
2022/06/26 08:37:40;;;;;;;1.52;1.42;;;29.90;87.60;;;31.84;38.96;97750.19;5198371;28;20199;-62
2022/06/26 08:40:13;;;;;;;1.60;1.50;;;29.80;87.40;;;31.81;39.94;97764.38;5195612;28;20196;-62
2022/06/26 08:42:52;;;;;;;1.77;1.67;;;29.80;88.60;;;31.85;39.18;97765.16;5193608;28;20193;-63
2022/06/26 08:45:27;;;;;;;1.70;1.60;;;29.60;88.10;;;31.85;40.06;97771.31;5194724;28;20190;-63
2022/06/26 08:48:01;;;;;;;2.65;1.80;;;29.80;89.40;;;31.79;39.72;97766.22;5193724;28;20567;-62
2022/06/26 08:50:34;;;;;;;1.60;1.50;;;29.80;87.40;;;31.68;39.87;97767.41;5196725;28;20272;-62
2022/06/26 08:53:09;;;;;;;1.63;1.52;;;29.90;87.60;;;31.61;40.44;97757.03;5198945;28;20209;-62
2022/06/26 08:55:43;;;;;;;1.80;1.70;;;29.70;88.60;;;31.77;39.76;97767.19;5194500;28;20363;-64
2022/06/26 08:58:16;;;;;;;1.70;1.60;;;30.10;87.60;;;31.78;39.35;97764.47;5196370;28;20283;-63
2022/06/26 09:00:49;;;;;;;1.65;1.55;;;30.10;86.50;;;31.87;39.77;97773.91;5197205;28;20201;-63
2022/06/26 09:03:22;;;;;;;1.80;1.70;;;30.30;86.20;;;31.91;38.63;97780.00;5193192;28;20729;-63
2022/06/26 09:05:55;;;;;;;1.65;1.55;;;30.20;84.60;;;31.44;40.37;97779.56;5194855;28;20260;-63
2022/06/26 09:08:30;;;;;;;1.70;1.60;;;29.90;87.60;;;31.11;41.35;97780.44;5205802;28;20229;-62
2022/06/26 09:11:03;;;;;;;1.50;1.40;;;29.70;88.40;;;31.40;40.89;97770.88;5202810;28;20201;-63
2022/06/26 09:13:38;;;;;;;1.58;1.48;;;30.00;87.30;;;31.51;39.70;97768.78;5201035;28;20741;-62
2022/06/26 09:16:14;;;;;;;1.70;1.60;;;30.10;85.70;;;31.30;39.72;97766.69;5199995;28;20659;-62
2022/06/26 09:18:47;;;;;;;1.63;1.50;;;29.90;85.50;;;31.38;39.80;97764.75;5207080;28;20263;-62
2022/06/26 09:21:27;;;;;;;1.70;1.60;;;29.90;85.40;;;31.26;39.75;97758.00;5203691;28;20667;-62
2022/06/26 09:24:02;;;;;;;1.70;1.60;;;30.00;84.80;;;31.47;40.51;97760.97;5206251;28;20250;-62
2022/06/26 09:26:35;;;;;;;1.75;1.65;;;30.10;86.60;;;31.50;39.36;97750.31;5200639;28;20486;-62
2022/06/26 09:29:11;;;;;;;1.60;1.50;;;30.10;85.30;;;31.52;39.54;97746.72;5204700;28;20698;-62
2022/06/26 09:31:45;;;;;;;1.45;1.42;;;30.10;84.90;;;31.53;39.46;97747.59;5205797;28;20233;-61
2022/06/26 09:34:24;;;;;;;1.77;1.67;;;30.20;84.50;;;31.33;39.50;97759.56;5202868;28;20251;-62
2022/06/26 09:36:58;;;;;;;1.83;1.70;;;30.10;84.20;;;31.41;38.89;97757.59;5205506;28;20211;-63
2022/06/26 09:39:34;;;;;;;1.60;1.50;;;30.00;83.40;;;31.47;40.08;97755.69;5205174;28;20267;-62
2022/06/26 09:42:18;;;;;;;1.88;1.50;;;30.20;85.20;;;31.54;40.22;97749.34;5203616;28;20275;-62
2022/06/26 09:44:53;;;;;;;1.67;1.58;;;30.40;84.20;;;31.56;38.28;97748.41;5202219;28;20193;-58
2022/06/26 09:47:28;;;;;;;1.70;1.40;;;30.50;81.90;;;31.44;37.94;97748.72;5198846;28;20612;-59
2022/06/26 09:50:04;;;;;;;1.52;1.42;;;30.20;81.60;;;31.35;38.77;97739.28;5202350;28;20691;-56
2022/06/26 09:52:37;;;;;;;1.52;1.42;;;30.20;83.80;;;31.36;38.69;97735.75;5204737;28;20288;-58
2022/06/26 09:55:13;;;;;;;1.88;1.67;;;30.10;82.70;;;31.34;38.78;97741.94;5202688;28;20897;-58
2022/06/26 09:57:48;;;;;;;1.73;1.60;;;30.10;82.90;;;31.35;38.04;97734.00;5205193;28;20220;-57
2022/06/26 10:00:21;;;;;;;1.30;1.30;;;30.10;81.80;;;31.44;38.70;97737.28;5204474;28;20247;-59
2022/06/26 10:08:37;;;;;;;1.52;1.42;;;30.30;81.40;;;31.16;38.55;97733.63;5198510;28;20640;-60
2022/06/26 10:11:13;;;;;;;1.50;1.40;;;30.10;81.40;;;31.14;39.04;97730.16;5199729;28;20198;-60
2022/06/26 10:13:46;;;;;;;1.40;1.30;;;29.90;82.50;;;31.27;38.32;97727.16;5204704;28;20239;-62
2022/06/26 10:17:13;;;;;;;1.83;1.70;;;30.20;81.50;;;31.24;38.68;97724.59;5200836;28;20272;-62
2022/06/26 10:19:52;;;;;;;1.75;1.48;;;30.30;81.10;;;31.19;39.40;97727.38;5166058;28;20249;-62
2022/06/26 10:22:25;;;;;;;1.50;1.40;;;30.10;82.10;;;31.05;39.29;97740.97;5204290;28;20209;-61
2022/06/26 10:25:01;;;;;;;1.30;1.30;;;30.00;82.30;;;30.84;38.98;97729.19;5200906;28;20217;-62
2022/06/26 10:27:37;;;;;;;1.48;1.40;;;29.70;81.60;;;30.88;38.73;97733.50;5196132;28;20666;-62
2022/06/26 10:30:15;;;;;;;1.50;1.40;;;29.90;81.60;;;30.81;39.14;97731.91;5204268;28;20189;-62
2022/06/26 10:33:08;;;;;;;1.42;1.42;;;29.70;81.60;;;30.71;39.57;97733.91;5199144;28;20256;-58
2022/06/26 10:35:44;;;;;;;1.55;1.45;;;29.60;82.10;;;30.86;39.44;97735.31;5200530;28;20252;-59
2022/06/26 10:38:23;;;;;;;1.67;1.58;;;29.90;82.20;;;30.57;40.36;97732.53;5200408;28;20271;-57
2022/06/26 10:44:17;;;;;;;1.67;1.42;;;29.60;83.70;;;30.61;40.53;97723.63;5155036;28;20272;-58
2022/06/26 10:46:56;;;;;;;1.40;1.30;;;29.60;83.60;;;30.55;40.83;97716.72;5191943;28;20194;-57
2022/06/26 10:49:30;;;;;;;1.80;1.70;;;29.50;84.40;;;30.63;40.72;97711.25;5201992;28;20228;-57
2022/06/26 10:52:03;;;;;;;1.63;1.52;;;29.70;83.80;;;30.64;40.69;97705.06;5198148;28;20536;-57
2022/06/26 10:54:37;;;;;;;1.30;1.30;;;29.70;84.30;;;30.78;40.64;97710.00;5197866;28;20250;-56
2022/06/26 10:57:17;;;;;;;1.60;1.50;;;29.80;83.60;;;30.66;39.76;97713.81;5196227;28;20211;-60
2022/06/26 10:59:52;;;;;;;1.75;1.50;;;29.70;82.60;;;30.48;40.16;97712.53;5197566;28;20229;-57
2022/06/26 11:02:26;;;;;;;1.60;1.50;;;29.60;82.50;;;30.51;39.88;97708.03;5198973;28;20838;-61
2022/06/26 11:05:00;;;;;;;1.60;1.50;;;29.60;82.30;;;30.33;41.08;97705.81;5201590;28;22162;-61
2022/06/26 11:07:46;;;;;;;1.65;1.60;;;29.30;83.40;;;30.35;39.26;97705.81;5204509;28;20209;-59
2022/06/26 11:10:22;;;;;;;1.70;1.60;;;29.40;81.80;;;30.33;40.26;97702.31;5198064;28;20247;-58
2022/06/26 11:12:55;;;;;;;1.80;1.70;;;29.20;83.00;;;30.24;39.97;97693.72;5193086;28;20227;-59